createdAt,value
2024-02-03T00:01:29.163Z,9.20
2024-02-03T00:03:59.831Z,9.05
2024-02-03T00:06:30.637Z,9.60
2024-02-03T00:09:01.250Z,9.28
2024-02-03T00:11:33.545Z,9.28
2024-02-03T00:14:04.206Z,9.55
2024-02-03T00:16:37.075Z,9.78
2024-02-03T00:19:08.028Z,8.95
2024-02-03T00:21:38.887Z,8.65
2024-02-03T00:24:09.864Z,9.03
2024-02-03T00:26:40.480Z,9.63
2024-02-03T00:29:11.114Z,8.83
2024-02-03T00:31:42.022Z,9.03
2024-02-03T00:34:12.689Z,8.80
2024-02-03T00:36:43.567Z,9.15
2024-02-03T00:39:14.305Z,9.63
2024-02-03T00:41:45.205Z,9.15
2024-02-03T00:44:16.584Z,9.73
2024-02-03T00:46:47.394Z,9.63
2024-02-03T00:49:18.100Z,9.97
2024-02-03T00:51:48.928Z,9.13
2024-02-03T00:54:19.696Z,9.28
2024-02-03T00:56:50.203Z,8.68
2024-02-03T00:59:20.835Z,8.23
2024-02-03T01:01:51.434Z,8.75
2024-02-03T01:04:22.110Z,8.55
2024-02-03T01:06:54.438Z,9.33
2024-02-03T01:09:26.881Z,9.88
2024-02-03T01:11:57.683Z,9.53
2024-02-03T01:14:28.434Z,9.60
2024-02-03T01:16:59.132Z,9.50
2024-02-03T01:19:30.282Z,9.60
2024-02-03T01:22:01.014Z,8.70
2024-02-03T01:24:31.561Z,9.38
2024-02-03T01:27:02.162Z,8.88
2024-02-03T01:29:32.706Z,8.85
2024-02-03T01:32:03.248Z,8.78
2024-02-03T01:34:34.197Z,9.10
2024-02-03T01:37:04.867Z,8.80
2024-02-03T01:39:35.489Z,8.90
2024-02-03T01:42:07.759Z,8.33
2024-02-03T01:44:38.355Z,8.83
2024-02-03T01:47:09.193Z,8.63
2024-02-03T01:49:40.297Z,8.95
2024-02-03T01:52:12.639Z,9.23
2024-02-03T01:54:44.544Z,9.00
2024-02-03T01:57:16.795Z,8.68
2024-02-03T01:59:47.881Z,8.85
2024-02-03T02:02:18.365Z,8.55
2024-02-03T02:04:49.227Z,8.30
2024-02-03T02:07:21.714Z,7.75
2024-02-03T02:09:56.505Z,8.30
2024-02-03T02:12:27.329Z,8.68
2024-02-03T02:14:58.069Z,8.35
2024-02-03T02:17:28.700Z,7.97
2024-02-03T02:20:09.513Z,7.62
2024-02-03T02:22:40.459Z,7.60
2024-02-03T02:25:11.161Z,8.55
2024-02-03T02:27:41.779Z,7.67
2024-02-03T02:30:12.520Z,8.10
2024-02-03T02:32:43.131Z,8.08
2024-02-03T02:35:13.907Z,8.20
2024-02-03T02:37:44.613Z,7.97
2024-02-03T02:40:15.193Z,8.40
2024-02-03T02:42:45.782Z,7.97
2024-02-03T02:45:16.450Z,8.63
2024-02-03T02:47:47.076Z,8.55
2024-02-03T02:50:17.869Z,8.58
2024-02-03T02:52:48.410Z,8.43
2024-02-03T02:55:18.999Z,7.92
2024-02-03T02:57:49.640Z,8.48
2024-02-03T03:00:20.550Z,8.63
2024-02-03T03:02:51.142Z,8.20
2024-02-03T03:05:21.766Z,8.43
2024-02-03T03:07:53.108Z,8.98
2024-02-03T03:10:23.672Z,9.05
2024-02-03T03:12:55.335Z,9.08
2024-02-03T03:15:25.948Z,9.58
2024-02-03T03:17:58.369Z,9.58
2024-02-03T03:20:28.503Z,9.35
2024-02-03T03:22:59.090Z,10.30
2024-02-03T03:25:31.242Z,9.05
2024-02-03T03:28:02.008Z,10.90
2024-02-03T03:30:34.188Z,10.13
2024-02-03T03:33:04.887Z,10.48
2024-02-03T03:35:35.972Z,10.70
2024-02-03T03:38:07.989Z,11.35
2024-02-03T03:40:38.972Z,10.45
2024-02-03T03:43:09.739Z,11.40
2024-02-03T03:45:40.313Z,10.70
2024-02-03T03:48:10.913Z,11.03
2024-02-03T03:50:41.465Z,12.15
2024-02-03T03:53:11.952Z,12.18
2024-02-03T03:55:42.485Z,11.60
2024-02-03T03:58:12.954Z,11.70
2024-02-03T04:00:43.528Z,11.15
2024-02-03T04:03:14.035Z,11.43
2024-02-03T04:05:44.557Z,11.83
2024-02-03T04:08:15.021Z,11.90
2024-02-03T04:10:45.617Z,11.40
2024-02-03T04:13:16.095Z,10.23
2024-02-03T04:15:46.881Z,11.12
2024-02-03T04:18:17.594Z,11.05
2024-02-03T04:20:48.222Z,11.20
2024-02-03T04:23:18.689Z,10.68
2024-02-03T04:25:49.212Z,10.75
2024-02-03T04:28:19.780Z,11.25
2024-02-03T04:30:50.402Z,10.23
2024-02-03T04:33:21.043Z,11.12
2024-02-03T04:35:51.754Z,11.08
2024-02-03T04:38:22.355Z,10.43
2024-02-03T04:40:52.903Z,10.10
2024-02-03T04:43:23.379Z,10.23
2024-02-03T04:45:54.699Z,9.90
2024-02-03T04:48:25.351Z,10.20
2024-02-03T04:50:55.867Z,10.45
2024-02-03T04:53:26.353Z,10.15
2024-02-03T04:55:56.859Z,9.35
2024-02-03T04:58:28.931Z,9.65
2024-02-03T05:00:59.607Z,9.80
2024-02-03T05:03:30.455Z,8.93
2024-02-03T05:06:05.840Z,10.18
2024-02-03T05:08:39.051Z,9.05
2024-02-03T05:11:09.631Z,9.23
2024-02-03T05:13:40.103Z,9.45
2024-02-03T05:16:10.511Z,8.85
2024-02-03T05:18:41.241Z,8.38
2024-02-03T05:21:11.873Z,9.25
2024-02-03T05:23:42.488Z,9.00
2024-02-03T05:26:13.059Z,8.43
2024-02-03T05:28:43.662Z,9.10
2024-02-03T05:31:21.942Z,8.85
2024-02-03T05:33:52.455Z,8.63
2024-02-03T05:36:23.138Z,9.48
2024-02-03T05:38:54.214Z,9.45
2024-02-03T05:41:24.752Z,8.93
2024-02-03T05:43:55.351Z,8.68
2024-02-03T05:46:25.887Z,7.97
2024-02-03T05:48:58.141Z,8.20
2024-02-03T05:51:28.697Z,8.58
2024-02-03T05:53:59.234Z,7.42
2024-02-03T05:56:29.654Z,7.87
2024-02-03T05:59:13.909Z,7.67
2024-02-03T06:01:32.420Z,7.53
2024-02-03T06:04:04.678Z,7.33
2024-02-03T06:06:35.527Z,7.30
2024-02-03T06:09:06.074Z,8.18
2024-02-03T06:11:36.551Z,7.87
2024-02-03T06:14:07.130Z,8.05
2024-02-03T06:16:37.630Z,7.20
2024-02-03T06:19:09.824Z,7.35
2024-02-03T06:21:40.397Z,7.55
2024-02-03T06:24:12.106Z,7.22
2024-02-03T06:26:42.635Z,7.17
2024-02-03T06:29:13.116Z,7.53
2024-02-03T06:31:44.312Z,6.65
2024-02-03T06:34:14.816Z,7.20
2024-02-03T06:36:45.710Z,6.40
2024-02-03T06:39:16.331Z,6.87
2024-02-03T06:41:47.248Z,7.33
2024-02-03T06:44:17.908Z,6.80
2024-02-03T06:46:48.516Z,7.50
2024-02-03T06:49:19.194Z,6.50
2024-02-03T06:51:49.836Z,6.70
2024-02-03T06:54:20.646Z,6.80
2024-02-03T06:56:51.077Z,7.00
2024-02-03T06:59:21.501Z,6.72
2024-02-03T07:01:52.829Z,8.28
2024-02-03T07:04:23.264Z,7.15
2024-02-03T07:06:53.930Z,7.35
2024-02-03T07:09:24.568Z,7.30
2024-02-03T07:12:01.325Z,6.90
2024-02-03T07:14:27.108Z,7.20
2024-02-03T07:16:57.589Z,7.58
2024-02-03T07:19:30.016Z,7.17
2024-02-03T07:22:00.624Z,7.25
2024-02-03T07:24:32.993Z,7.40
2024-02-03T07:27:04.281Z,8.23
2024-02-03T07:29:35.869Z,8.23
2024-02-03T07:32:06.829Z,7.92
2024-02-03T07:34:39.128Z,7.20
2024-02-03T07:37:10.142Z,7.62
2024-02-03T07:39:41.840Z,8.70
2024-02-03T07:42:12.410Z,7.95
2024-02-03T07:44:44.384Z,7.60
2024-02-03T07:47:15.146Z,8.33
2024-02-03T07:49:45.939Z,7.80
2024-02-03T07:52:16.524Z,8.05
2024-02-03T07:54:49.331Z,8.60
2024-02-03T07:57:19.894Z,7.83
2024-02-03T07:59:50.641Z,7.87
2024-02-03T08:02:21.167Z,7.97
2024-02-03T08:04:51.899Z,7.45
2024-02-03T08:07:22.486Z,7.75
2024-02-03T08:09:53.157Z,7.45
2024-02-03T08:12:23.685Z,7.28
2024-02-03T08:14:54.368Z,6.90
2024-02-03T08:17:24.938Z,7.62
2024-02-03T08:19:55.673Z,7.33
2024-02-03T08:22:26.198Z,7.00
2024-02-03T08:24:56.912Z,7.42
2024-02-03T08:27:27.511Z,7.45
2024-02-03T08:29:58.000Z,6.87
2024-02-03T08:32:28.529Z,7.10
2024-02-03T08:37:31.193Z,7.22
2024-02-03T08:40:01.855Z,7.03
2024-02-03T08:42:32.627Z,7.25
2024-02-03T08:45:03.670Z,7.40
2024-02-03T08:47:34.308Z,6.92
2024-02-03T08:50:05.601Z,6.72
2024-02-03T08:52:36.144Z,6.60
2024-02-03T08:55:07.429Z,7.25
2024-02-03T08:57:37.992Z,6.70
2024-02-03T09:00:09.287Z,6.90
2024-02-03T09:02:39.803Z,7.55
2024-02-03T09:05:10.524Z,7.00
2024-02-03T09:07:42.702Z,6.95
2024-02-03T09:10:13.215Z,6.75
2024-02-03T09:12:45.204Z,6.72
2024-02-03T09:15:15.935Z,6.72
2024-02-03T09:17:46.508Z,6.28
2024-02-03T09:20:17.157Z,6.47
2024-02-03T09:22:47.693Z,6.05
2024-02-03T09:25:18.322Z,6.45
2024-02-03T09:27:49.065Z,5.87
2024-02-03T09:30:19.702Z,6.85
2024-02-03T09:33:09.633Z,6.47
2024-02-03T09:35:40.241Z,6.05
2024-02-03T09:38:10.833Z,5.80
2024-02-03T09:40:41.502Z,5.30
2024-02-03T09:43:12.499Z,6.42
2024-02-03T09:45:44.567Z,5.30
2024-02-03T09:48:15.073Z,6.05
2024-02-03T09:50:45.806Z,6.35
2024-02-03T09:53:17.136Z,5.78
2024-02-03T09:55:47.707Z,5.83
2024-02-03T09:58:18.196Z,6.33
2024-02-03T10:00:53.871Z,5.33
2024-02-03T10:03:24.778Z,6.08
2024-02-03T10:06:04.496Z,5.72
2024-02-03T10:08:35.057Z,5.40
2024-02-03T10:11:05.827Z,5.60
2024-02-03T10:13:36.385Z,5.00
2024-02-03T10:16:08.655Z,5.35
2024-02-03T10:18:39.326Z,4.92
2024-02-03T10:21:10.057Z,5.20
2024-02-03T10:23:41.882Z,4.50
2024-02-03T10:26:12.435Z,5.40
2024-02-03T10:28:44.736Z,5.10
2024-02-03T10:31:15.321Z,4.67
2024-02-03T10:33:49.803Z,5.08
2024-02-03T10:36:20.539Z,5.00
2024-02-03T10:38:51.213Z,5.60
2024-02-03T10:41:23.888Z,5.17
2024-02-03T10:43:57.417Z,5.47
2024-02-03T10:46:28.177Z,5.25
2024-02-03T10:49:02.282Z,5.37
2024-02-03T10:51:34.174Z,5.22
2024-02-03T10:54:07.698Z,5.15
2024-02-03T10:56:39.844Z,5.10
2024-02-03T10:59:10.610Z,4.92
2024-02-03T11:01:42.801Z,5.20
2024-02-03T11:04:15.783Z,5.42
2024-02-03T11:06:49.271Z,4.80
2024-02-03T11:09:24.001Z,5.00
2024-02-03T11:11:56.372Z,4.83
2024-02-03T11:14:30.810Z,5.35
2024-02-03T11:17:04.246Z,5.20
2024-02-03T11:19:35.774Z,4.92
2024-02-03T11:22:07.780Z,5.12
2024-02-03T11:24:40.609Z,4.80
2024-02-03T11:27:12.069Z,4.47
2024-02-03T11:29:42.742Z,5.05
2024-02-03T11:32:14.895Z,5.50
2024-02-03T11:34:45.981Z,5.15
2024-02-03T11:37:17.313Z,4.70
2024-02-03T11:39:48.053Z,5.05
2024-02-03T11:42:18.662Z,5.10
2024-02-03T11:44:59.542Z,5.45
2024-02-03T11:47:30.856Z,5.37
2024-02-03T11:50:01.632Z,5.42
2024-02-03T11:52:32.391Z,5.25
2024-02-03T11:55:03.548Z,5.20
2024-02-03T11:57:34.157Z,5.58
2024-02-03T12:00:08.778Z,5.67
2024-02-03T12:02:39.493Z,5.35
2024-02-03T12:05:14.348Z,5.22
2024-02-03T12:07:43.794Z,4.97
2024-02-03T12:10:14.456Z,5.12
2024-02-03T12:12:46.676Z,5.70
2024-02-03T12:15:17.397Z,5.50
2024-02-03T12:17:48.999Z,5.60
2024-02-03T12:20:26.239Z,5.75
2024-02-03T12:23:19.878Z,5.92
2024-02-03T12:25:50.774Z,5.90
2024-02-03T12:28:23.468Z,5.53
2024-02-03T12:31:00.192Z,5.40
2024-02-03T12:33:31.011Z,5.60
2024-02-03T12:36:01.898Z,6.80
2024-02-03T12:38:32.451Z,5.12
2024-02-03T12:41:03.231Z,5.20
2024-02-03T12:43:34.034Z,6.42
2024-02-03T12:46:04.872Z,5.87
2024-02-03T12:48:35.540Z,5.35
2024-02-03T12:51:06.763Z,5.33
2024-02-03T12:53:37.667Z,5.37
2024-02-03T12:56:08.508Z,5.40
2024-02-03T12:58:39.059Z,6.10
2024-02-03T13:01:09.902Z,5.83
2024-02-03T13:03:40.466Z,5.53
2024-02-03T13:06:12.923Z,5.20
2024-02-03T13:08:43.463Z,5.00
2024-02-03T13:11:17.661Z,5.00
2024-02-03T13:13:46.168Z,5.20
2024-02-03T13:16:16.863Z,5.17
2024-02-03T13:18:47.462Z,5.58
2024-02-03T13:21:19.016Z,5.33
2024-02-03T13:23:50.054Z,5.03
2024-02-03T13:26:22.049Z,6.00
2024-02-03T13:28:52.640Z,5.58
2024-02-03T13:31:26.541Z,5.55
2024-02-03T13:33:57.241Z,6.30
2024-02-03T13:36:27.948Z,5.75
2024-02-03T13:38:58.635Z,5.45
2024-02-03T13:41:29.224Z,5.83
2024-02-03T13:43:59.647Z,5.50
2024-02-03T13:46:30.388Z,6.03
2024-02-03T13:49:01.689Z,5.90
2024-02-03T13:51:34.140Z,5.37
2024-02-03T13:54:04.678Z,5.42
2024-02-03T13:56:35.307Z,5.10
2024-02-03T13:59:05.918Z,5.55
2024-02-03T14:01:36.620Z,5.03
2024-02-03T14:04:07.231Z,5.60
2024-02-03T14:06:38.077Z,5.37
2024-02-03T14:09:09.950Z,5.47
2024-02-03T14:11:50.528Z,5.67
2024-02-03T14:14:16.001Z,5.70
2024-02-03T14:16:45.953Z,5.30
2024-02-03T14:19:16.631Z,5.80
2024-02-03T14:21:47.365Z,6.08
2024-02-03T14:24:17.868Z,5.75
2024-02-03T14:26:48.433Z,5.45
2024-02-03T14:29:19.486Z,5.90
2024-02-03T14:31:50.695Z,5.15
2024-02-03T14:34:21.534Z,4.65
2024-02-03T14:36:52.268Z,5.25
2024-02-03T14:39:22.960Z,4.65
2024-02-03T14:41:54.672Z,4.92
2024-02-03T14:44:25.322Z,5.03
2024-02-03T14:46:56.753Z,5.03
2024-02-03T14:49:27.843Z,4.45
2024-02-03T14:51:58.571Z,4.37
2024-02-03T14:54:29.250Z,4.72
2024-02-03T14:56:59.933Z,4.62
2024-02-03T14:59:30.481Z,4.42
2024-02-03T15:02:02.637Z,4.97
2024-02-03T15:04:33.152Z,5.50
2024-02-03T15:07:03.987Z,4.60
2024-02-03T15:09:34.720Z,4.85
2024-02-03T15:12:07.014Z,4.90
2024-02-03T15:14:37.579Z,5.45
2024-02-03T15:17:08.163Z,5.45
2024-02-03T15:19:40.055Z,5.42
2024-02-03T15:22:11.006Z,6.03
2024-02-03T15:24:41.713Z,6.10
2024-02-03T15:27:12.384Z,5.90
2024-02-03T15:29:43.051Z,5.60
2024-02-03T15:32:13.584Z,5.97
2024-02-03T15:34:44.284Z,6.55
2024-02-03T15:37:15.081Z,6.85
2024-02-03T15:39:46.035Z,6.55
2024-02-03T15:42:18.628Z,6.65
2024-02-03T15:44:49.305Z,6.55
2024-02-03T15:47:22.212Z,6.30
2024-02-03T15:49:52.980Z,7.55
2024-02-03T15:52:23.640Z,6.47
2024-02-03T15:54:55.288Z,7.17
2024-02-03T15:57:25.926Z,7.65
2024-02-03T15:59:56.623Z,7.65
2024-02-03T16:02:29.080Z,8.75
2024-02-03T16:04:59.879Z,7.65
2024-02-03T16:07:30.609Z,8.10
2024-02-03T16:10:01.430Z,9.55
2024-02-03T16:12:32.383Z,8.80
2024-02-03T16:15:02.913Z,8.58
2024-02-03T16:17:33.889Z,9.55
2024-02-03T16:20:05.864Z,8.80
2024-02-03T16:22:39.544Z,8.68
2024-02-03T16:25:10.620Z,9.10
2024-02-03T16:27:44.782Z,8.85
2024-02-03T16:30:15.991Z,9.10
2024-02-03T16:32:47.255Z,9.13
2024-02-03T16:35:18.023Z,9.20
2024-02-03T16:37:48.923Z,10.68
2024-02-03T16:40:19.616Z,10.05
2024-02-03T16:42:52.575Z,10.72
2024-02-03T16:45:24.632Z,10.88
2024-02-03T16:47:55.197Z,10.72
2024-02-03T16:50:25.603Z,10.72
2024-02-03T16:52:56.154Z,10.70
2024-02-03T16:55:26.622Z,10.38
2024-02-03T16:57:57.264Z,9.98
2024-02-03T17:00:27.953Z,10.20
2024-02-03T17:02:58.676Z,10.72
2024-02-03T17:05:30.500Z,10.65
2024-02-03T17:08:01.012Z,11.38
2024-02-03T17:10:31.534Z,10.40
2024-02-03T17:13:02.203Z,10.13
2024-02-03T17:15:33.183Z,11.05
2024-02-03T17:18:05.314Z,10.80
2024-02-03T17:20:35.949Z,11.05
2024-02-03T17:23:06.483Z,10.72
2024-02-03T17:25:37.050Z,11.05
2024-02-03T17:28:07.769Z,10.25
2024-02-03T17:30:38.913Z,10.88
2024-02-03T17:33:09.498Z,10.82
2024-02-03T17:35:40.107Z,11.30
2024-02-03T17:38:11.683Z,11.18
2024-02-03T17:40:42.157Z,10.63
2024-02-03T17:43:12.734Z,10.65
2024-02-03T17:45:43.312Z,10.82
2024-02-03T17:48:14.881Z,10.48
2024-02-03T17:50:45.778Z,10.88
2024-02-03T17:53:16.347Z,9.20
2024-02-03T17:55:46.829Z,9.90
2024-02-03T17:58:17.464Z,10.03
2024-02-03T18:00:48.171Z,10.10
2024-02-03T18:03:18.899Z,10.23
2024-02-03T18:05:49.848Z,9.23
2024-02-03T18:08:20.695Z,10.00
2024-02-03T18:10:52.833Z,11.00
2024-02-03T18:13:23.367Z,10.58
2024-02-03T18:15:53.985Z,10.03
2024-02-03T18:18:25.896Z,11.00
2024-02-03T18:20:56.818Z,10.70
2024-02-03T18:23:28.971Z,10.95
2024-02-03T18:25:59.420Z,10.98
2024-02-03T18:28:29.840Z,10.65
2024-02-03T18:31:00.705Z,8.68
2024-02-03T18:33:31.267Z,7.55
2024-02-03T18:36:01.761Z,6.97
2024-02-03T18:38:32.236Z,7.72
2024-02-03T18:41:02.879Z,7.20
2024-02-03T18:43:33.825Z,7.10
2024-02-03T18:46:04.439Z,6.65
2024-02-03T18:48:35.493Z,7.35
2024-02-03T18:51:06.599Z,6.53
2024-02-03T18:53:37.123Z,6.25
2024-02-03T18:56:07.700Z,7.17
2024-02-03T18:58:39.960Z,7.00
2024-02-03T19:01:10.760Z,7.10
2024-02-03T19:03:44.142Z,7.20
2024-02-03T19:06:15.012Z,7.67
2024-02-03T19:08:46.811Z,6.12
2024-02-03T19:11:17.608Z,6.00
2024-02-03T19:13:48.096Z,6.17
2024-02-03T19:16:18.614Z,6.40
2024-02-03T19:18:49.331Z,5.67
2024-02-03T19:21:20.076Z,6.20
2024-02-03T19:23:50.570Z,6.00
2024-02-03T19:26:21.817Z,6.25
2024-02-03T19:28:52.322Z,5.53
2024-02-03T19:31:22.833Z,5.37
2024-02-03T19:33:54.351Z,5.08
2024-02-03T19:36:24.919Z,6.53
2024-02-03T19:38:55.465Z,4.90
2024-02-03T19:41:26.021Z,4.83
2024-02-03T19:43:56.577Z,5.20
2024-02-03T19:46:27.577Z,3.60
2024-02-03T19:48:58.197Z,4.90
2024-02-03T19:51:28.969Z,4.97
2024-02-03T19:53:59.663Z,4.17
2024-02-03T19:56:31.677Z,3.52
2024-02-03T19:59:03.927Z,3.70
2024-02-03T20:01:34.721Z,3.37
2024-02-03T20:04:07.025Z,3.55
2024-02-03T20:06:38.113Z,3.83
2024-02-03T20:09:10.043Z,3.62
2024-02-03T20:11:40.510Z,3.60
2024-02-03T20:14:11.004Z,3.95
2024-02-03T20:16:42.804Z,3.22
2024-02-03T20:19:13.491Z,4.10
2024-02-03T20:21:45.869Z,3.45
2024-02-03T20:24:16.293Z,3.20
2024-02-03T20:26:47.465Z,3.95
2024-02-03T20:29:17.969Z,4.78
2024-02-03T20:31:48.587Z,4.08
2024-02-03T20:34:19.469Z,4.30
2024-02-03T20:36:51.143Z,3.90
2024-02-03T20:39:21.753Z,3.83
2024-02-03T20:41:53.307Z,3.80
2024-02-03T20:44:24.924Z,4.00
2024-02-03T20:46:56.525Z,4.00
2024-02-03T20:49:30.201Z,4.10
2024-02-03T20:52:01.015Z,3.85
2024-02-03T20:54:32.586Z,3.92
2024-02-03T20:57:03.619Z,4.12
2024-02-03T20:59:34.188Z,3.83
2024-02-03T21:02:05.474Z,3.72
2024-02-03T21:04:37.523Z,4.20
2024-02-03T21:07:09.658Z,4.30
2024-02-03T21:09:41.946Z,3.80
2024-02-03T21:12:12.545Z,4.30
2024-02-03T21:14:43.148Z,4.03
2024-02-03T21:17:13.863Z,3.77
2024-02-03T21:19:45.255Z,4.15
2024-02-03T21:22:16.338Z,3.90
2024-02-03T21:24:47.114Z,4.25
2024-02-03T21:27:18.202Z,3.72
2024-02-03T21:29:48.849Z,4.17
2024-02-03T21:32:19.436Z,4.55
2024-02-03T21:34:50.688Z,3.70
2024-02-03T21:37:22.686Z,3.70
2024-02-03T21:39:53.259Z,3.60
2024-02-03T21:42:25.393Z,3.80
2024-02-03T21:44:55.859Z,3.45
2024-02-03T21:47:26.559Z,3.92
2024-02-03T21:49:58.942Z,4.05
2024-02-03T21:52:31.817Z,3.60
2024-02-03T21:55:02.606Z,3.35
2024-02-03T21:57:34.544Z,3.50
2024-02-03T22:00:06.178Z,3.62
2024-02-03T22:02:37.534Z,3.47
2024-02-03T22:05:08.587Z,3.60
2024-02-03T22:07:39.089Z,3.12
2024-02-03T22:10:10.507Z,3.33
2024-02-03T22:12:41.043Z,2.70
2024-02-03T22:15:11.722Z,2.98
2024-02-03T22:17:43.422Z,3.05
2024-02-03T22:20:13.970Z,3.90
2024-02-03T22:22:44.420Z,2.98
2024-02-03T22:25:15.245Z,3.83
2024-02-03T22:27:46.124Z,3.45
2024-02-03T22:30:24.264Z,3.62
2024-02-03T22:32:59.490Z,3.42
2024-02-03T22:35:31.290Z,3.17
2024-02-03T22:38:01.978Z,4.33
2024-02-03T22:40:32.581Z,3.60
2024-02-03T22:43:03.187Z,3.12
2024-02-03T22:45:33.708Z,3.30
2024-02-03T22:48:04.641Z,4.05
2024-02-03T22:50:35.131Z,3.65
2024-02-03T22:53:06.395Z,3.90
2024-02-03T22:55:37.112Z,3.30
2024-02-03T22:58:10.272Z,3.00
2024-02-03T23:00:42.049Z,3.10
2024-02-03T23:03:14.069Z,3.05
2024-02-03T23:05:45.032Z,3.10
2024-02-03T23:08:16.638Z,3.05
2024-02-03T23:10:47.256Z,3.52
2024-02-03T23:13:17.813Z,3.20
2024-02-03T23:15:49.340Z,3.27
2024-02-03T23:18:20.173Z,2.98
2024-02-03T23:20:50.954Z,3.42
2024-02-03T23:23:21.794Z,2.72
2024-02-03T23:25:53.442Z,2.60
2024-02-03T23:28:25.497Z,2.70
2024-02-03T23:30:58.019Z,2.58
2024-02-03T23:33:31.441Z,3.10
2024-02-03T23:36:01.943Z,2.50
2024-02-03T23:38:34.080Z,2.70
2024-02-03T23:41:07.275Z,2.90
2024-02-03T23:43:38.566Z,2.75
2024-02-03T23:46:10.697Z,2.60
2024-02-03T23:48:41.463Z,3.27
2024-02-03T23:51:12.091Z,2.65
2024-02-03T23:53:42.739Z,2.90
2024-02-03T23:56:13.298Z,3.33
2024-02-03T23:58:44.647Z,3.47
